Time;durP1;ratioP1;P1;durP2;ratioP2;P2;SDS_P1;SDS_P2;PMS_P1;PMS_P2;Temp;Humidity;BMP_temperature;BMP_pressure;BME280_temperature;BME280_humidity;BME280_pressure;Samples;Min_cycle;Max_cycle;Signal;HPM_P1;HPM_P2
2022/07/30 00:01:01;;;;;;;3.10;2.77;;;14.60;1.00;;;;;;8270608;28;20608;-64
2022/07/30 00:05:03;;;;;;;4.03;2.73;;;14.50;1.00;;;;;;8259425;28;20196;-65
2022/07/30 00:09:03;;;;;;;2.83;2.63;;;14.40;1.00;;;;;;8270525;28;20197;-64
2022/07/30 00:13:05;;;;;;;3.73;2.50;;;14.40;12.90;;;;;;8272304;28;20224;-66
2022/07/30 00:17:06;;;;;;;2.60;2.23;;;14.30;66.10;;;;;;8278267;28;20518;-64
2022/07/30 00:21:07;;;;;;;3.03;2.40;;;14.30;94.50;;;;;;8258276;28;20286;-64
2022/07/30 00:25:08;;;;;;;3.40;2.27;;;14.40;97.00;;;;;;8277709;28;20191;-64
2022/07/30 00:29:09;;;;;;;3.43;2.30;;;14.40;65.10;;;;;;8253887;28;20200;-64
2022/07/30 00:33:09;;;;;;;3.17;2.20;;;14.50;26.90;;;;;;8255628;28;20218;-64
2022/07/30 00:37:10;;;;;;;4.50;2.50;;;14.60;26.60;;;;;;8255944;28;20190;-64
2022/07/30 00:41:11;;;;;;;4.17;2.27;;;14.70;36.30;;;;;;8270995;28;20197;-64
2022/07/30 00:45:13;;;;;;;3.90;2.23;;;14.70;12.80;;;;;;8263427;28;20191;-64
2022/07/30 00:49:14;;;;;;;3.03;2.30;;;14.80;1.00;;;;;;8272114;28;20191;-65
2022/07/30 00:53:15;;;;;;;3.27;2.37;;;14.90;1.00;;;;;;8257072;28;20246;-64
2022/07/30 00:57:16;;;;;;;2.57;2.20;;;15.00;1.00;;;;;;8275220;28;20187;-64
2022/07/30 01:01:17;;;;;;;5.53;2.40;;;15.10;1.00;;;;;;8276829;28;20717;-64
2022/07/30 01:05:18;;;;;;;3.13;2.50;;;15.30;1.00;;;;;;8259790;28;20190;-65
2022/07/30 01:09:18;;;;;;;4.00;2.63;;;15.30;1.00;;;;;;8273964;28;20226;-64
2022/07/30 01:13:19;;;;;;;2.43;2.23;;;15.20;1.00;;;;;;8265260;28;20290;-64
2022/07/30 01:17:20;;;;;;;3.27;2.73;;;15.30;1.00;;;;;;8268711;28;20187;-64
2022/07/30 01:21:31;;;;;;;2.60;2.40;;;15.20;1.00;;;;;;8259472;28;20198;-64
2022/07/30 01:25:37;;;;;;;3.27;2.67;;;15.20;9.20;;;;;;8267383;28;20227;-64
2022/07/30 01:29:39;;;;;;;3.13;2.57;;;15.20;1.00;;;;;;8274930;28;20186;-64
2022/07/30 01:33:45;;;;;;;3.17;2.87;;;15.10;1.00;;;;;;8279174;28;20259;-64
2022/07/30 01:37:48;;;;;;;2.83;2.63;;;15.10;1.00;;;;;;8258952;28;20187;-65
2022/07/30 01:41:51;;;;;;;3.20;2.50;;;15.10;1.00;;;;;;8258662;28;20275;-64
2022/07/30 01:45:52;;;;;;;4.23;2.77;;;15.10;1.00;;;;;;8275031;28;20198;-64
2022/07/30 01:49:54;;;;;;;3.73;2.60;;;15.10;1.00;;;;;;8276319;28;20212;-64
2022/07/30 01:53:57;;;;;;;3.20;2.60;;;15.10;1.00;;;;;;8275734;28;20229;-65
2022/07/30 01:57:59;;;;;;;3.27;2.63;;;15.10;1.00;;;;;;8277153;28;20270;-64
2022/07/30 02:02:00;;;;;;;3.13;2.73;;;15.10;11.50;;;;;;8269850;28;20195;-64
2022/07/30 02:06:12;;;;;;;4.73;2.70;;;15.10;10.70;;;;;;8252160;28;20197;-64
2022/07/30 02:10:50;;;;;;;4.70;2.60;;;15.10;52.80;;;;;;8266378;28;20194;-64
2022/07/30 02:15:17;;;;;;;2.80;2.37;;;15.00;95.60;;;;;;8257817;28;20730;-65
2022/07/30 02:19:20;;;;;;;3.20;2.60;;;15.00;99.90;;;;;;8258553;28;20199;-65
2022/07/30 02:23:22;;;;;;;3.17;2.50;;;15.00;99.90;;;;;;8276816;28;20195;-64
2022/07/30 02:27:29;;;;;;;4.33;2.60;;;15.00;99.90;;;;;;8259611;28;20224;-64
2022/07/30 02:31:31;;;;;;;4.87;2.53;;;15.00;99.90;;;;;;8259503;28;20627;-64
2022/07/30 02:35:35;;;;;;;2.70;2.30;;;15.00;99.90;;;;;;8258713;28;20270;-64
2022/07/30 02:39:38;;;;;;;2.40;2.20;;;15.00;96.60;;;;;;8275003;28;21592;-64
2022/07/30 02:43:40;;;;;;;3.53;2.50;;;15.00;90.60;;;;;;8277559;28;20274;-64
2022/07/30 02:47:42;;;;;;;2.70;2.50;;;15.00;99.80;;;;;;8270662;28;20212;-64
2022/07/30 02:51:46;;;;;;;2.43;2.23;;;15.00;99.90;;;;;;8276359;28;20307;-64
2022/07/30 02:55:51;;;;;;;2.97;2.30;;;15.00;99.90;;;;;;8270845;28;20230;-65
2022/07/30 02:59:53;;;;;;;2.63;2.30;;;15.00;99.90;;;;;;8269737;28;20190;-64
2022/07/30 03:03:54;;;;;;;2.70;2.30;;;15.00;99.90;;;;;;8274723;28;20274;-65
2022/07/30 03:07:58;;;;;;;2.80;2.33;;;15.10;99.90;;;;;;8245861;28;20199;-64
2022/07/30 03:12:01;;;;;;;3.53;2.40;;;15.10;99.90;;;;;;8255951;28;20216;-65
2022/07/30 03:16:06;;;;;;;3.83;2.33;;;15.10;99.90;;;;;;8261929;28;20286;-64
2022/07/30 03:20:09;;;;;;;3.17;2.40;;;15.20;99.90;;;;;;8266673;28;20191;-64
2022/07/30 03:24:12;;;;;;;5.40;3.10;;;15.30;93.10;;;;;;8251660;28;20191;-65
2022/07/30 03:28:13;;;;;;;3.13;2.77;;;15.30;94.90;;;;;;8266906;28;20225;-64
2022/07/30 03:32:14;;;;;;;6.07;2.80;;;15.30;99.90;;;;;;8265562;28;20270;-64
2022/07/30 03:36:17;;;;;;;5.90;3.00;;;15.30;99.90;;;;;;8272359;28;20191;-65
2022/07/30 03:40:18;;;;;;;2.90;2.63;;;15.30;99.90;;;;;;8251438;28;20187;-65
2022/07/30 03:44:20;;;;;;;4.03;2.43;;;15.20;99.90;;;;;;8255405;28;20219;-65
2022/07/30 03:48:22;;;;;;;3.33;2.57;;;15.30;99.90;;;;;;8256648;28;20202;-65
2022/07/30 03:52:23;;;;;;;4.00;2.60;;;15.30;99.90;;;;;;8271575;28;20270;-65
2022/07/30 03:56:24;;;;;;;3.27;2.40;;;15.40;99.90;;;;;;8252815;28;20199;-65
2022/07/30 04:00:26;;;;;;;2.77;2.17;;;15.40;99.90;;;;;;8258968;28;20191;-65
2022/07/30 04:04:27;;;;;;;3.43;2.50;;;15.50;99.90;;;;;;8262880;28;20203;-65
2022/07/30 04:08:28;;;;;;;3.63;2.57;;;15.60;99.90;;;;;;8270632;28;20191;-64
2022/07/30 04:12:29;;;;;;;2.93;2.63;;;15.70;99.90;;;;;;8274452;28;20648;-65
2022/07/30 04:16:45;;;;;;;3.73;3.23;;;15.70;99.90;;;;;;8269144;28;20224;-66
2022/07/30 04:20:48;;;;;;;4.80;2.73;;;15.80;99.90;;;;;;8259125;28;20187;-65
2022/07/30 04:24:51;;;;;;;4.40;2.90;;;15.80;99.90;;;;;;8268844;28;20195;-65
2022/07/30 04:28:51;;;;;;;4.73;3.27;;;15.80;99.90;;;;;;8258506;28;20187;-65
2022/07/30 04:32:52;;;;;;;3.80;2.67;;;15.80;99.90;;;;;;8256244;28;20222;-66
2022/07/30 04:36:53;;;;;;;4.20;2.77;;;15.90;99.90;;;;;;8268314;28;20199;-66
2022/07/30 04:40:54;;;;;;;2.50;2.30;;;15.90;99.90;;;;;;8267362;28;20190;-66
2022/07/30 04:44:55;;;;;;;3.30;2.87;;;15.90;1.00;;;;;;8250381;28;20255;-66
2022/07/30 04:48:56;;;;;;;3.60;2.10;;;15.80;73.40;;;;;;8254757;28;20575;-66
2022/07/30 04:52:57;;;;;;;4.10;2.30;;;15.80;1.00;;;;;;8268692;28;20215;-67
2022/07/30 04:56:58;;;;;;;5.63;2.63;;;15.90;12.30;;;;;;8250038;28;20502;-66
2022/07/30 05:01:02;;;;;;;5.23;3.23;;;15.90;99.90;;;;;;8261414;28;20210;-66
2022/07/30 05:05:04;;;;;;;6.27;3.23;;;16.00;99.90;;;;;;8246011;28;20199;-66
2022/07/30 05:09:05;;;;;;;3.73;2.70;;;16.00;39.80;;;;;;8250038;28;20285;-66
2022/07/30 05:13:10;;;;;;;3.90;2.37;;;16.00;99.90;;;;;;8246222;28;20212;-66
2022/07/30 05:17:11;;;;;;;3.57;2.97;;;16.10;1.00;;;;;;8284251;28;20495;-66
2022/07/30 05:21:12;;;;;;;3.70;2.80;;;16.00;99.90;;;;;;8249135;28;20191;-67
2022/07/30 05:25:13;;;;;;;4.90;2.63;;;16.00;1.00;;;;;;8255425;28;20199;-67
2022/07/30 05:29:14;;;;;;;6.47;2.80;;;16.00;99.90;;;;;;8270118;28;20204;-66
2022/07/30 05:33:14;;;;;;;16.53;9.43;;;15.90;99.90;;;;;;8262667;28;20215;-66
2022/07/30 05:37:15;;;;;;;6.30;5.10;;;15.90;1.00;;;;;;8249923;28;20192;-66
2022/07/30 05:41:16;;;;;;;7.07;4.47;;;15.80;1.00;;;;;;8249804;28;20194;-66
2022/07/30 05:45:17;;;;;;;4.70;3.10;;;15.60;99.90;;;;;;8251311;28;20200;-66
2022/07/30 05:49:18;;;;;;;8.53;4.67;;;15.50;99.90;;;;;;8259126;28;20248;-66
2022/07/30 05:53:19;;;;;;;8.93;5.87;;;15.50;99.90;;;;;;8254407;28;20578;-66
2022/07/30 05:57:20;;;;;;;7.97;5.57;;;15.40;99.90;;;;;;8253983;28;20273;-66
2022/07/30 06:01:21;;;;;;;7.00;4.63;;;15.40;99.90;;;;;;8273420;28;20234;-66
2022/07/30 06:10:19;;;;;;;8.53;5.77;;;15.40;99.90;;;;;;8270943;28;20209;-66
2022/07/30 06:14:20;;;;;;;10.17;5.97;;;15.30;99.90;;;;;;8272497;28;20216;-66
2022/07/30 06:18:21;;;;;;;8.90;4.47;;;15.20;99.90;;;;;;8267826;28;20179;-66
2022/07/30 06:22:21;;;;;;;6.87;5.00;;;15.10;99.90;;;;;;8276647;28;20211;-66
2022/07/30 06:26:22;;;;;;;6.13;4.07;;;15.00;99.90;;;;;;8273330;28;20202;-66
2022/07/30 06:30:23;;;;;;;8.40;4.80;;;15.00;99.90;;;;;;8273866;28;20194;-66
2022/07/30 06:34:24;;;;;;;5.30;4.00;;;15.00;99.90;;;;;;8259382;28;20257;-66
2022/07/30 06:38:24;;;;;;;6.53;3.87;;;15.00;99.90;;;;;;8271129;28;20192;-66
2022/07/30 06:42:25;;;;;;;7.53;5.07;;;15.10;99.90;;;;;;8263628;28;20207;-66
2022/07/30 06:46:26;;;;;;;5.57;3.90;;;15.10;99.90;;;;;;8267684;28;20345;-66
2022/07/30 06:50:27;;;;;;;5.20;4.10;;;15.10;99.90;;;;;;8251442;28;20201;-66
2022/07/30 06:54:28;;;;;;;7.87;4.70;;;15.10;99.90;;;;;;8273569;28;20552;-66
2022/07/30 06:58:29;;;;;;;12.03;5.10;;;15.10;99.90;;;;;;8272173;28;20190;-66
2022/07/30 07:02:30;;;;;;;8.27;5.50;;;15.20;99.90;;;;;;8250422;28;20198;-66
2022/07/30 07:06:30;;;;;;;7.00;4.77;;;15.30;99.90;;;;;;8267761;28;20227;-66
2022/07/30 07:10:31;;;;;;;5.87;5.10;;;15.30;99.90;;;;;;8288613;22;20234;-80
2022/07/30 07:14:32;;;;;;;6.70;5.00;;;15.40;99.90;;;;;;8308192;28;20228;-82
2022/07/30 07:18:33;;;;;;;7.67;5.10;;;15.40;99.90;;;;;;8334077;28;20214;-83
2022/07/30 07:22:49;;;;;;;6.00;4.03;;;15.60;99.90;;;;;;8324510;28;20221;-82
2022/07/30 07:26:52;;;;;;;4.13;3.73;;;15.60;99.90;;;;;;8300974;28;20232;-81
2022/07/30 07:31:01;;;;;;;5.10;4.40;;;15.60;99.90;;;;;;8342733;28;20614;-82
2022/07/30 07:35:19;;;;;;;;;;;;;;;;;;;;;
2022/07/30 07:39:20;;;;;;;4.00;3.60;;;15.50;99.90;;;;;;8335847;28;20213;-80
2022/07/30 07:43:22;;;;;;;3.67;3.33;;;15.40;99.90;;;;;;8325532;28;20186;-81
2022/07/30 07:47:28;;;;;;;4.93;3.50;;;15.40;99.90;;;;;;8319750;28;20244;-80
2022/07/30 07:56:38;;;;;;;6.00;3.80;;;15.30;99.90;;;;;;8342620;28;20198;-82
2022/07/30 08:00:51;;;;;;;8.13;3.70;;;15.20;99.90;;;;;;8342579;28;20200;-81
2022/07/30 08:05:11;;;;;;;7.17;3.80;;;15.20;99.90;;;;;;8329943;28;20185;-80
2022/07/30 08:09:21;;;;;;;6.07;3.30;;;15.20;99.90;;;;;;8345913;28;20186;-80
2022/07/30 08:13:28;;;;;;;8.47;5.47;;;15.30;99.90;;;;;;8327744;28;20213;-81
2022/07/30 08:17:29;;;;;;;6.97;4.33;;;15.40;99.90;;;;;;8339449;28;20192;-82
2022/07/30 08:21:59;;;;;;;5.20;3.53;;;15.40;99.90;;;;;;8345551;28;20178;-82
2022/07/30 08:26:00;;;;;;;4.07;3.13;;;15.50;99.90;;;;;;8333128;28;20195;-84
2022/07/30 08:30:08;;;;;;;4.10;3.00;;;15.60;99.90;;;;;;8326574;28;20271;-79
2022/07/30 08:34:09;;;;;;;5.10;3.30;;;15.60;99.90;;;;;;8332447;28;20237;-78
2022/07/30 08:38:12;;;;;;;3.43;3.10;;;15.70;99.90;;;;;;8323996;28;20182;-78
2022/07/30 08:42:13;;;;;;;7.57;3.70;;;15.70;99.90;;;;;;8333631;28;20193;-78
2022/07/30 08:46:17;;;;;;;4.83;3.00;;;15.70;99.90;;;;;;8338148;28;20189;-77
2022/07/30 08:50:23;;;;;;;5.20;4.03;;;15.70;99.90;;;;;;8315135;28;20216;-77
2022/07/30 08:54:29;;;;;;;9.63;5.80;;;15.80;99.90;;;;;;8339313;28;20228;-80
2022/07/30 08:58:33;;;;;;;4.60;3.83;;;15.80;99.90;;;;;;8350476;28;20190;-79
2022/07/30 09:02:34;;;;;;;6.00;3.77;;;15.80;99.90;;;;;;8321326;28;20281;-79
2022/07/30 09:06:53;;;;;;;7.57;4.57;;;15.80;99.90;;;;;;8323203;28;20194;-78
2022/07/30 09:10:54;;;;;;;6.13;4.07;;;15.70;99.90;;;;;;8322439;28;20198;-80
2022/07/30 09:15:11;;;;;;;5.10;3.80;;;15.70;99.90;;;;;;8326850;28;20213;-78
2022/07/30 09:19:22;;;;;;;5.27;4.30;;;15.60;99.90;;;;;;8323872;28;20237;-79
2022/07/30 09:23:23;;;;;;;6.10;3.90;;;15.50;99.90;;;;;;8347716;28;20194;-78
2022/07/30 09:28:10;;;;;;;4.60;4.17;;;15.60;99.90;;;;;;8334564;28;20183;-79
2022/07/30 09:32:11;;;;;;;6.87;5.00;;;15.70;99.90;;;;;;8332488;28;20227;-80
2022/07/30 09:36:35;;;;;;;5.57;4.83;;;15.80;99.90;;;;;;8341203;28;20285;-76
2022/07/30 09:40:36;;;;;;;5.23;4.70;;;15.80;99.90;;;;;;8351022;28;20293;-77
2022/07/30 09:44:37;;;;;;;5.80;5.20;;;15.80;99.90;;;;;;8333895;28;20190;-77
2022/07/30 09:48:38;;;;;;;4.70;4.30;;;15.80;99.90;;;;;;8338396;28;20189;-76
2022/07/30 09:52:42;;;;;;;6.00;4.67;;;15.80;99.90;;;;;;8316352;28;20241;-76
2022/07/30 09:56:45;;;;;;;6.53;4.20;;;15.70;99.90;;;;;;8340797;28;20253;-77
2022/07/30 10:00:46;;;;;;;5.03;4.53;;;15.70;99.90;;;;;;8331810;28;20305;-76
2022/07/30 10:04:47;;;;;;;5.03;4.37;;;15.60;99.90;;;;;;8325633;28;20196;-76
2022/07/30 10:08:50;;;;;;;4.43;4.03;;;15.70;99.90;;;;;;8337759;28;20189;-75
2022/07/30 10:12:57;;;;;;;4.47;4.00;;;15.70;99.90;;;;;;8334838;28;20210;-75
2022/07/30 10:16:59;;;;;;;5.57;4.30;;;15.70;99.90;;;;;;8327566;28;20174;-77
2022/07/30 10:21:01;;;;;;;6.27;4.17;;;15.60;99.90;;;;;;8328291;28;20181;-77
2022/07/30 10:25:03;;;;;;;5.90;4.43;;;15.60;99.90;;;;;;8327717;28;20182;-77
2022/07/30 10:29:04;;;;;;;5.40;4.40;;;15.60;99.90;;;;;;8322102;28;20187;-77
2022/07/30 10:33:07;;;;;;;5.60;4.53;;;15.50;99.90;;;;;;8327836;28;20202;-78
2022/07/30 10:37:11;;;;;;;6.27;4.47;;;15.40;99.90;;;;;;8343736;28;20188;-77
2022/07/30 10:41:38;;;;;;;5.47;4.97;;;15.10;99.90;;;;;;8333461;28;20527;-77
2022/07/30 10:46:03;;;;;;;6.00;4.97;;;15.00;99.90;;;;;;8332718;28;20612;-77
2022/07/30 10:50:12;;;;;;;7.13;4.70;;;14.90;99.90;;;;;;8329167;28;20254;-77
2022/07/30 10:54:32;;;;;;;6.23;5.63;;;14.90;99.90;;;;;;8331676;28;20397;-77
2022/07/30 10:58:58;;;;;;;6.10;5.60;;;14.90;99.90;;;;;;8319855;28;20186;-77
2022/07/30 11:03:14;;;;;;;6.17;5.27;;;15.00;99.90;;;;;;8323775;28;20186;-78
2022/07/30 11:07:35;;;;;;;4.10;3.70;;;15.10;99.90;;;;;;8323730;28;20197;-77
2022/07/30 11:11:36;;;;;;;5.73;4.17;;;15.10;99.90;;;;;;8327514;28;20214;-77
2022/07/30 11:15:58;;;;;;;5.00;4.50;;;15.10;99.90;;;;;;8322053;28;20300;-77
2022/07/30 11:20:08;;;;;;;5.77;4.73;;;15.10;99.90;;;;;;8342379;28;20181;-77
2022/07/30 11:24:42;;;;;;;5.30;4.80;;;15.20;99.90;;;;;;8328146;28;20182;-76
2022/07/30 11:28:45;;;;;;;5.83;5.23;;;15.30;99.90;;;;;;8326721;28;20205;-77
2022/07/30 11:33:16;;;;;;;5.57;5.07;;;15.30;99.90;;;;;;8332029;28;20251;-77
2022/07/30 11:37:17;;;;;;;6.23;5.63;;;15.30;99.90;;;;;;8343082;28;20187;-77
2022/07/30 11:41:18;;;;;;;4.90;4.50;;;15.40;99.90;;;;;;8328658;28;20182;-77
2022/07/30 11:45:25;;;;;;;4.67;4.27;;;15.50;99.90;;;;;;8329818;28;20257;-78
2022/07/30 11:49:34;;;;;;;4.97;4.43;;;15.60;99.90;;;;;;8330970;28;20198;-78
2022/07/30 11:53:35;;;;;;;4.50;4.10;;;15.70;99.90;;;;;;8323243;28;20312;-77
2022/07/30 11:57:40;;;;;;;4.20;3.80;;;15.70;99.90;;;;;;8334866;28;20182;-76
2022/07/30 12:01:42;;;;;;;4.80;4.40;;;15.70;99.90;;;;;;8321756;28;20185;-77
2022/07/30 12:05:44;;;;;;;6.13;4.37;;;15.70;99.90;;;;;;8326106;28;20248;-77
2022/07/30 12:09:45;;;;;;;4.37;3.90;;;15.80;99.90;;;;;;8338539;28;20317;-78
2022/07/30 12:13:58;;;;;;;6.23;4.23;;;15.80;99.90;;;;;;8323459;28;20218;-77
2022/07/30 12:18:00;;;;;;;5.00;4.50;;;15.80;99.90;;;;;;8333182;28;20170;-78
2022/07/30 12:22:01;;;;;;;4.10;3.80;;;15.90;99.90;;;;;;8328290;28;20266;-78
2022/07/30 12:26:04;;;;;;;4.50;4.10;;;16.00;99.90;;;;;;8337688;28;20182;-77
2022/07/30 12:30:08;;;;;;;5.70;4.00;;;15.90;99.90;;;;;;8331247;28;20186;-77
2022/07/30 12:34:22;;;;;;;4.50;3.90;;;15.90;99.90;;;;;;8341410;28;20210;-77
2022/07/30 12:38:25;;;;;;;5.07;4.30;;;15.80;99.90;;;;;;8330140;28;20195;-77
2022/07/30 12:42:28;;;;;;;4.10;3.80;;;15.70;99.90;;;;;;8328688;28;20194;-77
2022/07/30 12:46:28;;;;;;;5.20;4.70;;;15.70;99.90;;;;;;8330097;28;20182;-77
2022/07/30 12:50:29;;;;;;;4.77;4.30;;;15.70;99.90;;;;;;8339989;28;20298;-77
2022/07/30 12:54:30;;;;;;;6.40;4.80;;;15.70;99.90;;;;;;8339076;28;20242;-77
2022/07/30 12:58:37;;;;;;;5.93;4.97;;;15.70;99.90;;;;;;8326299;28;20182;-77
2022/07/30 13:02:37;;;;;;;5.63;5.13;;;15.70;99.90;;;;;;8336763;28;20190;-78
2022/07/30 13:06:40;;;;;;;6.23;5.63;;;15.70;99.90;;;;;;8347532;28;20196;-76
2022/07/30 13:10:55;;;;;;;6.43;5.73;;;15.70;99.90;;;;;;8333340;28;20217;-75
2022/07/30 13:14:56;;;;;;;6.40;5.80;;;15.70;99.90;;;;;;8344775;28;20202;-77
2022/07/30 13:18:57;;;;;;;6.80;5.63;;;15.70;99.90;;;;;;8347445;28;20185;-78
2022/07/30 13:22:57;;;;;;;7.47;5.97;;;15.70;99.90;;;;;;8341019;28;20186;-77
2022/07/30 13:26:58;;;;;;;7.23;5.80;;;15.70;99.90;;;;;;8331362;28;20338;-78
2022/07/30 13:31:00;;;;;;;8.50;5.80;;;15.70;99.90;;;;;;8334723;28;20182;-78
2022/07/30 13:35:01;;;;;;;7.57;6.73;;;15.70;99.90;;;;;;8327491;28;20208;-78
2022/07/30 13:39:03;;;;;;;9.57;6.23;;;15.70;99.90;;;;;;8344649;28;20217;-78
2022/07/30 13:43:04;;;;;;;7.03;6.40;;;15.70;99.90;;;;;;8330068;28;20193;-77
2022/07/30 13:47:06;;;;;;;8.60;6.50;;;15.70;99.90;;;;;;8343536;28;20179;-78
2022/07/30 13:51:07;;;;;;;9.23;6.90;;;15.70;99.90;;;;;;8333470;28;20260;-78
2022/07/30 13:55:09;;;;;;;9.50;7.07;;;15.70;99.90;;;;;;8332847;28;20206;-78
2022/07/30 13:59:10;;;;;;;8.17;6.87;;;15.70;99.90;;;;;;8323617;28;20190;-78
2022/07/30 14:03:11;;;;;;;7.80;6.70;;;15.80;99.90;;;;;;8334058;28;20285;-77
2022/07/30 14:07:12;;;;;;;6.67;6.07;;;15.80;99.90;;;;;;8324982;28;20252;-78
2022/07/30 14:11:14;;;;;;;6.03;5.43;;;15.80;99.90;;;;;;8329651;28;20446;-78
2022/07/30 14:15:15;;;;;;;6.60;5.90;;;15.80;99.90;;;;;;8331492;28;20296;-78
2022/07/30 14:19:17;;;;;;;8.07;5.50;;;15.90;99.90;;;;;;8328545;28;20277;-78
2022/07/30 14:23:18;;;;;;;6.53;5.47;;;15.90;99.90;;;;;;8351135;28;20182;-77
2022/07/30 14:27:19;;;;;;;5.90;5.37;;;15.90;99.90;;;;;;8346810;28;20177;-77
2022/07/30 14:31:20;;;;;;;7.50;5.67;;;16.00;99.90;;;;;;8330082;28;20274;-77
2022/07/30 14:35:20;;;;;;;6.80;6.00;;;16.00;99.90;;;;;;8329436;28;20205;-78
2022/07/30 14:39:21;;;;;;;7.33;6.03;;;15.90;99.90;;;;;;8332209;28;20186;-78
2022/07/30 14:43:23;;;;;;;8.17;6.10;;;15.90;99.90;;;;;;8329736;28;20227;-77
2022/07/30 14:47:24;;;;;;;8.33;6.50;;;15.90;99.90;;;;;;8341148;28;20186;-76
2022/07/30 14:51:25;;;;;;;6.50;5.90;;;15.90;99.90;;;;;;8339920;28;20217;-77
2022/07/30 14:55:26;;;;;;;6.67;6.07;;;15.90;99.90;;;;;;8331954;28;20216;-78
2022/07/30 14:59:27;;;;;;;8.93;7.23;;;15.90;99.90;;;;;;8335479;28;20240;-77
2022/07/30 15:03:28;;;;;;;8.87;6.70;;;15.90;99.90;;;;;;8327121;28;20276;-77
2022/07/30 15:07:29;;;;;;;8.67;6.57;;;15.90;99.90;;;;;;8332433;28;20219;-77
2022/07/30 15:11:30;;;;;;;8.17;6.63;;;15.80;99.90;;;;;;8314129;28;20213;-77
2022/07/30 15:15:33;;;;;;;10.50;9.40;;;15.80;99.90;;;;;;8321797;28;20260;-77
2022/07/30 15:19:34;;;;;;;15.43;11.40;;;15.90;99.90;;;;;;8326573;28;20217;-77
2022/07/30 15:23:37;;;;;;;10.50;6.17;;;15.90;99.90;;;;;;8325954;28;20194;-77
2022/07/30 15:27:38;;;;;;;7.50;6.70;;;15.80;99.90;;;;;;8322615;28;20187;-76
2022/07/30 15:31:39;;;;;;;8.10;7.30;;;15.80;99.90;;;;;;8329451;28;20242;-77
2022/07/30 15:35:40;;;;;;;7.87;7.00;;;15.80;99.90;;;;;;8346675;28;20198;-76
2022/07/30 15:39:41;;;;;;;8.53;6.80;;;15.80;99.90;;;;;;8321995;28;20181;-76
2022/07/30 15:43:42;;;;;;;8.60;7.23;;;15.80;99.90;;;;;;8340889;28;20217;-75
2022/07/30 15:47:43;;;;;;;7.83;6.77;;;15.80;99.90;;;;;;8331908;28;20221;-76
2022/07/30 15:51:47;;;;;;;9.80;7.10;;;15.80;99.90;;;;;;8322189;28;20214;-77
2022/07/30 15:55:48;;;;;;;11.43;7.40;;;15.80;99.90;;;;;;8326003;28;20218;-76
2022/07/30 15:59:49;;;;;;;7.80;7.00;;;15.90;99.90;;;;;;8330067;28;20241;-76
2022/07/30 16:03:53;;;;;;;11.00;8.03;;;15.90;99.90;;;;;;8328293;28;20190;-76
2022/07/30 16:07:54;;;;;;;9.43;7.60;;;15.90;99.90;;;;;;8340793;28;20583;-76
2022/07/30 16:11:56;;;;;;;9.37;8.47;;;15.90;99.90;;;;;;8346695;28;20219;-76
2022/07/30 16:15:57;;;;;;;9.50;8.60;;;15.90;99.90;;;;;;8327421;28;20209;-76
2022/07/30 16:19:58;;;;;;;10.17;9.17;;;15.90;99.90;;;;;;8327996;28;20178;-76
2022/07/30 16:23:59;;;;;;;10.90;8.83;;;15.90;99.90;;;;;;8338000;28;20182;-77
2022/07/30 16:28:00;;;;;;;10.23;8.97;;;15.90;99.90;;;;;;8323310;28;20251;-77
2022/07/30 16:32:03;;;;;;;9.70;8.63;;;15.90;99.90;;;;;;8319495;28;20213;-76
2022/07/30 16:36:07;;;;;;;12.03;9.90;;;15.80;99.90;;;;;;8321812;28;20550;-76
2022/07/30 16:40:08;;;;;;;10.73;9.63;;;15.80;99.90;;;;;;8327123;28;20220;-76
2022/07/30 16:44:09;;;;;;;12.70;9.90;;;15.80;99.90;;;;;;8325252;28;20182;-76
2022/07/30 16:48:12;;;;;;;12.73;9.80;;;15.90;99.90;;;;;;8330892;28;20197;-76
2022/07/30 16:52:14;;;;;;;13.97;10.33;;;15.80;99.90;;;;;;8317104;28;20202;-76
2022/07/30 16:56:16;;;;;;;13.40;10.93;;;15.90;99.90;;;;;;8327478;28;20236;-76
2022/07/30 17:00:17;;;;;;;12.50;10.93;;;15.90;99.90;;;;;;8328579;28;20185;-76
2022/07/30 17:04:18;;;;;;;11.30;9.33;;;15.90;99.90;;;;;;8333056;28;20254;-76
2022/07/30 17:08:19;;;;;;;14.27;10.97;;;15.90;99.90;;;;;;8319135;28;20190;-76
2022/07/30 17:12:21;;;;;;;10.60;9.57;;;15.90;99.90;;;;;;8323798;28;20221;-76
2022/07/30 17:16:22;;;;;;;11.77;10.33;;;15.90;99.90;;;;;;8329690;28;20178;-77
2022/07/30 17:20:23;;;;;;;11.63;10.43;;;16.00;99.90;;;;;;8319391;28;20195;-75
2022/07/30 17:24:23;;;;;;;10.80;9.33;;;16.00;99.90;;;;;;8330081;28;20182;-76
2022/07/30 17:28:24;;;;;;;11.43;9.60;;;15.90;99.90;;;;;;8336058;28;20198;-76
2022/07/30 17:32:25;;;;;;;10.53;8.57;;;15.90;99.90;;;;;;8329865;28;20186;-76
2022/07/30 17:36:26;;;;;;;10.03;8.17;;;15.90;99.90;;;;;;8322529;28;20209;-76
2022/07/30 17:40:27;;;;;;;11.87;9.43;;;15.90;99.90;;;;;;8329658;28;20488;-77
2022/07/30 17:44:28;;;;;;;10.83;8.73;;;15.90;99.90;;;;;;8333582;28;20282;-76
2022/07/30 17:48:30;;;;;;;9.57;8.47;;;15.90;99.90;;;;;;8331724;28;20195;-77
2022/07/30 17:52:32;;;;;;;9.43;8.53;;;15.90;99.90;;;;;;8322679;28;20201;-76
2022/07/30 17:56:33;;;;;;;8.47;7.63;;;15.90;99.90;;;;;;8330523;28;20260;-76
2022/07/30 18:00:34;;;;;;;10.57;7.37;;;15.90;99.90;;;;;;8328753;28;20229;-77
2022/07/30 18:04:37;;;;;;;9.10;7.40;;;15.80;99.90;;;;;;8331523;28;20193;-77
2022/07/30 18:08:39;;;;;;;11.03;6.60;;;15.80;99.90;;;;;;8326593;28;20201;-77
2022/07/30 18:12:40;;;;;;;8.50;6.83;;;15.80;99.90;;;;;;8333338;28;20224;-76
2022/07/30 18:16:41;;;;;;;8.40;7.60;;;15.80;99.90;;;;;;8322375;28;20194;-77
2022/07/30 18:20:42;;;;;;;9.60;7.40;;;15.80;99.90;;;;;;8347360;28;20202;-77
2022/07/30 18:24:43;;;;;;;10.43;8.50;;;15.80;99.90;;;;;;8317762;28;20194;-76
2022/07/30 18:28:46;;;;;;;12.63;8.37;;;15.80;99.90;;;;;;8329151;28;20190;-75
2022/07/30 18:32:47;;;;;;;11.03;9.70;;;15.90;99.90;;;;;;8342549;28;20255;-74
2022/07/30 18:36:50;;;;;;;10.23;9.23;;;15.90;99.90;;;;;;8342006;28;20193;-76
2022/07/30 18:40:58;;;;;;;12.03;9.37;;;15.90;99.90;;;;;;8321998;28;20264;-76
2022/07/30 18:44:59;;;;;;;12.13;9.90;;;16.00;99.90;;;;;;8325872;28;20178;-76
2022/07/30 18:49:00;;;;;;;10.07;9.10;;;15.90;99.90;;;;;;8322898;28;20186;-76
2022/07/30 18:53:01;;;;;;;11.63;10.50;;;15.90;99.90;;;;;;8338989;28;20256;-76
2022/07/30 18:57:03;;;;;;;12.63;11.33;;;15.90;99.90;;;;;;8324439;28;20209;-76
2022/07/30 19:01:04;;;;;;;16.17;10.47;;;15.90;99.90;;;;;;8342654;28;20229;-76
2022/07/30 19:05:07;;;;;;;14.07;10.33;;;15.90;99.90;;;;;;8333069;28;20277;-76
2022/07/30 19:09:08;;;;;;;14.17;11.70;;;15.90;99.90;;;;;;8333969;28;20216;-76
2022/07/30 19:13:08;;;;;;;11.40;10.20;;;15.90;99.90;;;;;;8329017;28;20217;-76
2022/07/30 19:17:09;;;;;;;13.53;11.57;;;15.90;99.90;;;;;;8329032;28;20241;-76
2022/07/30 19:21:10;;;;;;;12.30;10.03;;;15.90;99.90;;;;;;8345988;28;20217;-76
2022/07/30 19:25:12;;;;;;;9.83;8.83;;;15.90;99.90;;;;;;8340157;28;20203;-76
2022/07/30 19:29:15;;;;;;;9.93;7.83;;;15.80;99.90;;;;;;8323377;28;20189;-76
2022/07/30 19:33:16;;;;;;;10.50;8.40;;;15.80;99.90;;;;;;8337868;28;20322;-76
2022/07/30 19:37:17;;;;;;;8.93;7.80;;;15.80;99.90;;;;;;8321065;28;20187;-76
2022/07/30 19:41:18;;;;;;;8.10;7.40;;;15.80;99.90;;;;;;8330621;28;20192;-76
2022/07/30 19:45:19;;;;;;;8.73;7.13;;;15.80;99.90;;;;;;8322926;28;20194;-76
2022/07/30 19:49:20;;;;;;;6.87;6.20;;;15.80;99.90;;;;;;8321791;28;20278;-76
2022/07/30 19:53:21;;;;;;;7.77;7.00;;;15.80;99.90;;;;;;8322299;28;20373;-76
2022/07/30 19:57:22;;;;;;;12.23;6.47;;;15.80;99.90;;;;;;8320960;28;20183;-76
2022/07/30 20:01:23;;;;;;;8.50;7.40;;;15.70;99.90;;;;;;8330060;28;20190;-76
2022/07/30 20:05:24;;;;;;;8.70;7.70;;;15.70;99.90;;;;;;8342461;28;20181;-76
2022/07/30 20:09:25;;;;;;;10.23;7.37;;;15.70;99.90;;;;;;8337761;28;20203;-77
2022/07/30 20:13:27;;;;;;;9.70;7.73;;;15.60;99.90;;;;;;8325252;28;20256;-77
2022/07/30 20:17:35;;;;;;;9.57;7.47;;;15.60;99.90;;;;;;8328850;28;20186;-76
2022/07/30 20:21:38;;;;;;;9.73;7.83;;;15.60;99.90;;;;;;8318332;28;20261;-76
2022/07/30 20:25:39;;;;;;;8.40;7.57;;;15.60;99.90;;;;;;8327956;28;20213;-76
2022/07/30 20:29:41;;;;;;;8.17;7.07;;;15.60;99.90;;;;;;8339199;28;20194;-77
2022/07/30 20:33:43;;;;;;;15.13;8.97;;;15.60;99.90;;;;;;8328714;28;20221;-77
2022/07/30 20:37:44;;;;;;;12.10;8.73;;;15.60;99.90;;;;;;8321568;28;20216;-76
2022/07/30 20:41:45;;;;;;;12.37;8.53;;;15.60;99.90;;;;;;8342039;28;20193;-76
2022/07/30 20:45:46;;;;;;;9.90;8.60;;;15.50;99.90;;;;;;8329327;28;20332;-76
2022/07/30 20:49:48;;;;;;;11.87;8.57;;;15.50;99.90;;;;;;8329510;28;20272;-76
2022/07/30 20:53:50;;;;;;;13.17;9.37;;;15.50;99.90;;;;;;8327581;28;20217;-77
2022/07/30 20:57:51;;;;;;;10.60;8.10;;;15.50;99.90;;;;;;8341622;28;20174;-76
2022/07/30 21:01:52;;;;;;;8.90;8.10;;;15.50;99.90;;;;;;8329781;28;20197;-76
2022/07/30 21:05:54;;;;;;;9.43;8.30;;;15.50;99.90;;;;;;8338116;28;20187;-76
2022/07/30 21:09:56;;;;;;;9.10;8.13;;;15.50;99.90;;;;;;8326871;28;20216;-75
2022/07/30 21:13:57;;;;;;;9.23;8.20;;;15.40;99.90;;;;;;8330751;28;20267;-76